sensor_id;sensor_type;location;lat;lon;timestamp;P1;durP1;ratioP1;P2;durP2;ratioP2
40945;SDS011;55635;50.264;11.918;2022-07-01T00:00:03;9.15;;;7.45;;
40945;SDS011;55635;50.264;11.918;2022-07-01T00:02:53;7.72;;;6.68;;
40945;SDS011;55635;50.264;11.918;2022-07-01T00:05:34;8.05;;;6.88;;
40945;SDS011;55635;50.264;11.918;2022-07-01T00:08:15;11.18;;;7.38;;
40945;SDS011;55635;50.264;11.918;2022-07-01T00:10:57;10.07;;;7.53;;
40945;SDS011;55635;50.264;11.918;2022-07-01T00:13:38;9.68;;;7.82;;
40945;SDS011;55635;50.264;11.918;2022-07-01T00:16:19;9.10;;;7.68;;
40945;SDS011;55635;50.264;11.918;2022-07-01T00:19:00;8.70;;;7.90;;
40945;SDS011;55635;50.264;11.918;2022-07-01T00:21:42;14.48;;;8.18;;
40945;SDS011;55635;50.264;11.918;2022-07-01T00:24:23;8.63;;;7.10;;
40945;SDS011;55635;50.264;11.918;2022-07-01T00:27:04;7.57;;;6.97;;
40945;SDS011;55635;50.264;11.918;2022-07-01T00:29:45;13.18;;;8.00;;
40945;SDS011;55635;50.264;11.918;2022-07-01T00:32:26;8.13;;;7.07;;
40945;SDS011;55635;50.264;11.918;2022-07-01T00:35:08;11.80;;;7.70;;
40945;SDS011;55635;50.264;11.918;2022-07-01T00:37:49;9.77;;;7.78;;
40945;SDS011;55635;50.264;11.918;2022-07-01T00:40:30;10.35;;;7.63;;
40945;SDS011;55635;50.264;11.918;2022-07-01T00:43:11;8.05;;;7.35;;
40945;SDS011;55635;50.264;11.918;2022-07-01T00:45:52;10.27;;;7.57;;
40945;SDS011;55635;50.264;11.918;2022-07-01T00:48:34;11.50;;;7.32;;
40945;SDS011;55635;50.264;11.918;2022-07-01T00:51:17;8.23;;;7.30;;
40945;SDS011;55635;50.264;11.918;2022-07-01T00:54:00;9.77;;;7.38;;
40945;SDS011;55635;50.264;11.918;2022-07-01T00:56:41;9.20;;;7.45;;
40945;SDS011;55635;50.264;11.918;2022-07-01T00:59:22;8.77;;;7.82;;
40945;SDS011;55635;50.264;11.918;2022-07-01T01:02:05;12.38;;;8.55;;
40945;SDS011;55635;50.264;11.918;2022-07-01T01:04:47;9.25;;;7.30;;
40945;SDS011;55635;50.264;11.918;2022-07-01T01:07:29;10.60;;;6.40;;
40945;SDS011;55635;50.264;11.918;2022-07-01T01:10:11;7.38;;;6.05;;
40945;SDS011;55635;50.264;11.918;2022-07-01T01:12:54;5.18;;;4.78;;
40945;SDS011;55635;50.264;11.918;2022-07-01T01:15:37;7.88;;;4.43;;
40945;SDS011;55635;50.264;11.918;2022-07-01T01:18:18;7.47;;;4.15;;
40945;SDS011;55635;50.264;11.918;2022-07-01T01:20:59;5.50;;;4.25;;
40945;SDS011;55635;50.264;11.918;2022-07-01T01:23:41;4.60;;;4.20;;
40945;SDS011;55635;50.264;11.918;2022-07-01T01:26:22;5.90;;;4.00;;
40945;SDS011;55635;50.264;11.918;2022-07-01T01:29:06;8.45;;;4.18;;
40945;SDS011;55635;50.264;11.918;2022-07-01T01:31:47;5.85;;;4.05;;
40945;SDS011;55635;50.264;11.918;2022-07-01T01:34:28;6.20;;;4.45;;
40945;SDS011;55635;50.264;11.918;2022-07-01T01:37:09;8.73;;;4.13;;
40945;SDS011;55635;50.264;11.918;2022-07-01T01:39:50;4.97;;;4.57;;
40945;SDS011;55635;50.264;11.918;2022-07-01T01:42:31;4.32;;;3.92;;
40945;SDS011;55635;50.264;11.918;2022-07-01T01:45:13;4.70;;;4.13;;
40945;SDS011;55635;50.264;11.918;2022-07-01T01:47:54;6.57;;;4.65;;
40945;SDS011;55635;50.264;11.918;2022-07-01T01:50:35;9.00;;;4.40;;
40945;SDS011;55635;50.264;11.918;2022-07-01T01:53:16;6.43;;;4.50;;
40945;SDS011;55635;50.264;11.918;2022-07-01T01:55:57;6.60;;;5.07;;
40945;SDS011;55635;50.264;11.918;2022-07-01T01:58:38;6.43;;;4.20;;
40945;SDS011;55635;50.264;11.918;2022-07-01T02:01:23;7.80;;;4.30;;
40945;SDS011;55635;50.264;11.918;2022-07-01T02:04:04;7.15;;;4.32;;
40945;SDS011;55635;50.264;11.918;2022-07-01T02:06:45;8.23;;;4.45;;
40945;SDS011;55635;50.264;11.918;2022-07-01T02:09:26;4.78;;;4.22;;
40945;SDS011;55635;50.264;11.918;2022-07-01T02:12:09;5.00;;;4.50;;
40945;SDS011;55635;50.264;11.918;2022-07-01T02:14:50;5.88;;;4.18;;
40945;SDS011;55635;50.264;11.918;2022-07-01T02:17:31;7.03;;;4.40;;
40945;SDS011;55635;50.264;11.918;2022-07-01T02:20:12;5.13;;;4.63;;
40945;SDS011;55635;50.264;11.918;2022-07-01T02:22:54;7.00;;;4.50;;
40945;SDS011;55635;50.264;11.918;2022-07-01T02:25:36;6.15;;;4.72;;
40945;SDS011;55635;50.264;11.918;2022-07-01T02:28:17;7.35;;;4.28;;
40945;SDS011;55635;50.264;11.918;2022-07-01T02:30:58;8.25;;;4.38;;
40945;SDS011;55635;50.264;11.918;2022-07-01T02:33:39;8.25;;;4.70;;
40945;SDS011;55635;50.264;11.918;2022-07-01T02:36:20;6.47;;;4.10;;
40945;SDS011;55635;50.264;11.918;2022-07-01T02:39:01;4.38;;;4.00;;
40945;SDS011;55635;50.264;11.918;2022-07-01T02:41:43;5.97;;;4.75;;
40945;SDS011;55635;50.264;11.918;2022-07-01T02:44:42;4.85;;;3.97;;
40945;SDS011;55635;50.264;11.918;2022-07-01T02:47:23;6.93;;;4.60;;
40945;SDS011;55635;50.264;11.918;2022-07-01T02:50:05;4.90;;;4.50;;
40945;SDS011;55635;50.264;11.918;2022-07-01T02:52:49;4.55;;;4.03;;
40945;SDS011;55635;50.264;11.918;2022-07-01T02:55:30;9.18;;;3.97;;
40945;SDS011;55635;50.264;11.918;2022-07-01T02:58:12;6.13;;;4.20;;
40945;SDS011;55635;50.264;11.918;2022-07-01T03:00:53;5.55;;;3.92;;
40945;SDS011;55635;50.264;11.918;2022-07-01T03:03:34;6.22;;;4.10;;
40945;SDS011;55635;50.264;11.918;2022-07-01T03:06:15;4.70;;;3.75;;
40945;SDS011;55635;50.264;11.918;2022-07-01T03:08:56;5.68;;;4.28;;
40945;SDS011;55635;50.264;11.918;2022-07-01T03:11:38;4.55;;;4.15;;
40945;SDS011;55635;50.264;11.918;2022-07-01T03:14:19;5.75;;;4.15;;
40945;SDS011;55635;50.264;11.918;2022-07-01T03:17:00;8.10;;;4.40;;
40945;SDS011;55635;50.264;11.918;2022-07-01T03:19:41;6.25;;;4.32;;
40945;SDS011;55635;50.264;11.918;2022-07-01T03:22:23;6.25;;;3.83;;
40945;SDS011;55635;50.264;11.918;2022-07-01T03:25:07;5.97;;;4.05;;
40945;SDS011;55635;50.264;11.918;2022-07-01T03:27:49;6.50;;;4.07;;
40945;SDS011;55635;50.264;11.918;2022-07-01T03:30:30;5.40;;;4.05;;
40945;SDS011;55635;50.264;11.918;2022-07-01T03:33:11;4.75;;;3.60;;
40945;SDS011;55635;50.264;11.918;2022-07-01T03:35:52;7.03;;;3.97;;
40945;SDS011;55635;50.264;11.918;2022-07-01T03:38:33;4.32;;;3.78;;
40945;SDS011;55635;50.264;11.918;2022-07-01T03:41:14;4.72;;;4.30;;
40945;SDS011;55635;50.264;11.918;2022-07-01T03:43:55;3.83;;;3.47;;
40945;SDS011;55635;50.264;11.918;2022-07-01T03:46:36;4.68;;;4.03;;
40945;SDS011;55635;50.264;11.918;2022-07-01T03:49:17;4.03;;;3.63;;
40945;SDS011;55635;50.264;11.918;2022-07-01T03:51:59;5.00;;;3.70;;
40945;SDS011;55635;50.264;11.918;2022-07-01T03:54:40;4.53;;;3.88;;
40945;SDS011;55635;50.264;11.918;2022-07-01T03:57:21;5.28;;;3.83;;
40945;SDS011;55635;50.264;11.918;2022-07-01T04:00:03;4.13;;;3.65;;
40945;SDS011;55635;50.264;11.918;2022-07-01T04:02:48;4.88;;;3.65;;
40945;SDS011;55635;50.264;11.918;2022-07-01T04:05:29;4.07;;;3.58;;
40945;SDS011;55635;50.264;11.918;2022-07-01T04:08:14;6.43;;;3.83;;
40945;SDS011;55635;50.264;11.918;2022-07-01T04:10:56;3.65;;;3.35;;
40945;SDS011;55635;50.264;11.918;2022-07-01T04:13:37;4.07;;;3.67;;
40945;SDS011;55635;50.264;11.918;2022-07-01T04:16:19;4.15;;;3.70;;
40945;SDS011;55635;50.264;11.918;2022-07-01T04:19:00;6.47;;;3.42;;
40945;SDS011;55635;50.264;11.918;2022-07-01T04:21:42;5.47;;;3.83;;
40945;SDS011;55635;50.264;11.918;2022-07-01T04:27:22;4.05;;;3.10;;
40945;SDS011;55635;50.264;11.918;2022-07-01T04:30:03;4.97;;;3.90;;
40945;SDS011;55635;50.264;11.918;2022-07-01T04:32:46;5.95;;;4.00;;
40945;SDS011;55635;50.264;11.918;2022-07-01T04:35:26;3.97;;;3.65;;
40945;SDS011;55635;50.264;11.918;2022-07-01T04:38:08;3.47;;;3.17;;
40945;SDS011;55635;50.264;11.918;2022-07-01T04:40:49;4.50;;;3.17;;
40945;SDS011;55635;50.264;11.918;2022-07-01T04:43:48;5.13;;;3.20;;
40945;SDS011;55635;50.264;11.918;2022-07-01T04:46:29;6.55;;;3.80;;
40945;SDS011;55635;50.264;11.918;2022-07-01T04:49:10;5.10;;;4.07;;
40945;SDS011;55635;50.264;11.918;2022-07-01T04:51:52;3.72;;;3.42;;
40945;SDS011;55635;50.264;11.918;2022-07-01T04:54:33;3.75;;;3.45;;
40945;SDS011;55635;50.264;11.918;2022-07-01T04:57:16;3.45;;;3.25;;
40945;SDS011;55635;50.264;11.918;2022-07-01T04:59:56;3.25;;;3.03;;
40945;SDS011;55635;50.264;11.918;2022-07-01T05:02:37;4.43;;;4.07;;
40945;SDS011;55635;50.264;11.918;2022-07-01T05:05:20;4.45;;;4.10;;
40945;SDS011;55635;50.264;11.918;2022-07-01T05:08:01;3.60;;;3.30;;
40945;SDS011;55635;50.264;11.918;2022-07-01T05:10:42;3.67;;;3.38;;
40945;SDS011;55635;50.264;11.918;2022-07-01T05:13:23;3.85;;;3.50;;
40945;SDS011;55635;50.264;11.918;2022-07-01T05:16:04;3.58;;;3.15;;
40945;SDS011;55635;50.264;11.918;2022-07-01T05:18:46;7.63;;;3.60;;
40945;SDS011;55635;50.264;11.918;2022-07-01T05:21:45;5.82;;;3.45;;
40945;SDS011;55635;50.264;11.918;2022-07-01T05:24:36;3.95;;;3.50;;
40945;SDS011;55635;50.264;11.918;2022-07-01T05:27:17;5.72;;;3.83;;
40945;SDS011;55635;50.264;11.918;2022-07-01T05:29:58;5.97;;;3.60;;
40945;SDS011;55635;50.264;11.918;2022-07-01T05:32:39;3.65;;;3.35;;
40945;SDS011;55635;50.264;11.918;2022-07-01T05:35:19;4.57;;;3.33;;
40945;SDS011;55635;50.264;11.918;2022-07-01T05:38:00;7.90;;;4.03;;
40945;SDS011;55635;50.264;11.918;2022-07-01T05:40:41;4.97;;;3.47;;
40945;SDS011;55635;50.264;11.918;2022-07-01T05:43:22;4.97;;;4.60;;
40945;SDS011;55635;50.264;11.918;2022-07-01T05:46:03;4.93;;;4.07;;
40945;SDS011;55635;50.264;11.918;2022-07-01T05:48:44;7.53;;;5.10;;
40945;SDS011;55635;50.264;11.918;2022-07-01T05:51:26;5.32;;;4.93;;
40945;SDS011;55635;50.264;11.918;2022-07-01T05:54:07;5.68;;;4.28;;
40945;SDS011;55635;50.264;11.918;2022-07-01T05:56:48;3.97;;;3.67;;
40945;SDS011;55635;50.264;11.918;2022-07-01T05:59:29;6.28;;;3.70;;
40945;SDS011;55635;50.264;11.918;2022-07-01T06:02:10;5.50;;;3.40;;
40945;SDS011;55635;50.264;11.918;2022-07-01T06:04:51;5.00;;;4.30;;
40945;SDS011;55635;50.264;11.918;2022-07-01T06:07:32;5.78;;;3.80;;
40945;SDS011;55635;50.264;11.918;2022-07-01T06:10:13;5.28;;;4.30;;
40945;SDS011;55635;50.264;11.918;2022-07-01T06:12:54;4.28;;;3.80;;
40945;SDS011;55635;50.264;11.918;2022-07-01T06:15:35;4.78;;;4.15;;
40945;SDS011;55635;50.264;11.918;2022-07-01T06:18:16;5.18;;;3.90;;
40945;SDS011;55635;50.264;11.918;2022-07-01T06:21:00;3.95;;;3.65;;
40945;SDS011;55635;50.264;11.918;2022-07-01T06:23:41;5.78;;;3.92;;
40945;SDS011;55635;50.264;11.918;2022-07-01T06:26:22;3.75;;;3.45;;
40945;SDS011;55635;50.264;11.918;2022-07-01T06:29:03;6.38;;;3.92;;
40945;SDS011;55635;50.264;11.918;2022-07-01T06:31:44;5.00;;;3.80;;
40945;SDS011;55635;50.264;11.918;2022-07-01T06:34:25;3.55;;;3.35;;
40945;SDS011;55635;50.264;11.918;2022-07-01T06:37:06;4.13;;;3.67;;
40945;SDS011;55635;50.264;11.918;2022-07-01T06:39:48;3.60;;;3.30;;
40945;SDS011;55635;50.264;11.918;2022-07-01T06:42:29;4.10;;;3.80;;
40945;SDS011;55635;50.264;11.918;2022-07-01T06:45:10;4.25;;;3.65;;
40945;SDS011;55635;50.264;11.918;2022-07-01T06:47:51;4.10;;;3.70;;
40945;SDS011;55635;50.264;11.918;2022-07-01T06:50:32;3.70;;;3.50;;
40945;SDS011;55635;50.264;11.918;2022-07-01T06:53:13;4.55;;;3.75;;
40945;SDS011;55635;50.264;11.918;2022-07-01T06:55:54;4.38;;;3.97;;
40945;SDS011;55635;50.264;11.918;2022-07-01T06:58:36;16.20;;;4.60;;
40945;SDS011;55635;50.264;11.918;2022-07-01T07:01:17;6.50;;;3.75;;
40945;SDS011;55635;50.264;11.918;2022-07-01T07:03:58;4.68;;;3.97;;
40945;SDS011;55635;50.264;11.918;2022-07-01T07:06:39;8.43;;;4.35;;
40945;SDS011;55635;50.264;11.918;2022-07-01T07:09:21;7.32;;;5.03;;
40945;SDS011;55635;50.264;11.918;2022-07-01T07:12:02;6.72;;;4.63;;
40945;SDS011;55635;50.264;11.918;2022-07-01T07:14:43;14.43;;;5.05;;
40945;SDS011;55635;50.264;11.918;2022-07-01T07:17:24;9.90;;;5.75;;
40945;SDS011;55635;50.264;11.918;2022-07-01T07:20:05;6.03;;;5.13;;
40945;SDS011;55635;50.264;11.918;2022-07-01T07:22:47;8.80;;;5.45;;
40945;SDS011;55635;50.264;11.918;2022-07-01T07:25:28;5.32;;;4.95;;
40945;SDS011;55635;50.264;11.918;2022-07-01T07:28:10;7.47;;;6.10;;
40945;SDS011;55635;50.264;11.918;2022-07-01T07:30:51;8.48;;;7.05;;
40945;SDS011;55635;50.264;11.918;2022-07-01T07:33:33;7.93;;;7.13;;
40945;SDS011;55635;50.264;11.918;2022-07-01T07:36:14;10.02;;;6.97;;
40945;SDS011;55635;50.264;11.918;2022-07-01T07:38:55;8.73;;;6.07;;
40945;SDS011;55635;50.264;11.918;2022-07-01T07:41:36;7.05;;;6.38;;
40945;SDS011;55635;50.264;11.918;2022-07-01T07:44:17;9.57;;;6.57;;
40945;SDS011;55635;50.264;11.918;2022-07-01T07:46:58;9.23;;;7.25;;
40945;SDS011;55635;50.264;11.918;2022-07-01T07:49:39;11.48;;;8.23;;
40945;SDS011;55635;50.264;11.918;2022-07-01T07:52:20;13.93;;;7.88;;
40945;SDS011;55635;50.264;11.918;2022-07-01T07:55:01;10.15;;;8.27;;
40945;SDS011;55635;50.264;11.918;2022-07-01T07:57:43;12.35;;;8.98;;
40945;SDS011;55635;50.264;11.918;2022-07-01T08:00:24;8.65;;;6.68;;
40945;SDS011;55635;50.264;11.918;2022-07-01T08:03:05;5.85;;;5.35;;
40945;SDS011;55635;50.264;11.918;2022-07-01T08:05:46;5.80;;;5.30;;
40945;SDS011;55635;50.264;11.918;2022-07-01T08:08:30;6.35;;;5.85;;
40945;SDS011;55635;50.264;11.918;2022-07-01T08:11:12;6.00;;;5.50;;
40945;SDS011;55635;50.264;11.918;2022-07-01T08:13:53;6.00;;;4.63;;
40945;SDS011;55635;50.264;11.918;2022-07-01T08:16:34;4.25;;;3.00;;
40945;SDS011;55635;50.264;11.918;2022-07-01T08:19:16;2.45;;;2.25;;
40945;SDS011;55635;50.264;11.918;2022-07-01T08:21:57;2.20;;;2.10;;
40945;SDS011;55635;50.264;11.918;2022-07-01T08:24:38;2.20;;;2.10;;
40945;SDS011;55635;50.264;11.918;2022-07-01T08:27:19;2.35;;;1.88;;
40945;SDS011;55635;50.264;11.918;2022-07-01T08:30:00;1.90;;;1.70;;
40945;SDS011;55635;50.264;11.918;2022-07-01T08:32:41;2.25;;;2.05;;
40945;SDS011;55635;50.264;11.918;2022-07-01T08:35:22;4.45;;;3.08;;
40945;SDS011;55635;50.264;11.918;2022-07-01T08:38:04;4.25;;;3.90;;
40945;SDS011;55635;50.264;11.918;2022-07-01T08:40:45;4.07;;;3.78;;
40945;SDS011;55635;50.264;11.918;2022-07-01T08:43:26;5.00;;;3.58;;
40945;SDS011;55635;50.264;11.918;2022-07-01T08:46:08;3.72;;;3.15;;
40945;SDS011;55635;50.264;11.918;2022-07-01T08:48:49;3.08;;;2.88;;
40945;SDS011;55635;50.264;11.918;2022-07-01T08:51:30;2.65;;;2.45;;
40945;SDS011;55635;50.264;11.918;2022-07-01T08:54:11;2.65;;;2.47;;
40945;SDS011;55635;50.264;11.918;2022-07-01T08:56:52;2.20;;;1.92;;
40945;SDS011;55635;50.264;11.918;2022-07-01T08:59:33;2.22;;;2.13;;
40945;SDS011;55635;50.264;11.918;2022-07-01T09:02:15;2.08;;;1.77;;
40945;SDS011;55635;50.264;11.918;2022-07-01T09:05:05;3.40;;;2.10;;
40945;SDS011;55635;50.264;11.918;2022-07-01T09:07:47;2.03;;;1.92;;
40945;SDS011;55635;50.264;11.918;2022-07-01T09:10:29;3.08;;;2.78;;
40945;SDS011;55635;50.264;11.918;2022-07-01T09:13:13;2.80;;;2.60;;
40945;SDS011;55635;50.264;11.918;2022-07-01T09:15:54;3.10;;;2.90;;
40945;SDS011;55635;50.264;11.918;2022-07-01T09:18:37;2.83;;;2.63;;
40945;SDS011;55635;50.264;11.918;2022-07-01T09:21:18;4.88;;;3.55;;
40945;SDS011;55635;50.264;11.918;2022-07-01T09:24:02;3.83;;;3.60;;
40945;SDS011;55635;50.264;11.918;2022-07-01T09:26:51;4.50;;;4.15;;
40945;SDS011;55635;50.264;11.918;2022-07-01T09:29:53;4.85;;;4.47;;
40945;SDS011;55635;50.264;11.918;2022-07-01T09:32:34;4.93;;;4.38;;
40945;SDS011;55635;50.264;11.918;2022-07-01T09:35:21;4.30;;;4.00;;
40945;SDS011;55635;50.264;11.918;2022-07-01T09:38:03;4.78;;;4.43;;
40945;SDS011;55635;50.264;11.918;2022-07-01T09:43:42;5.30;;;4.90;;
40945;SDS011;55635;50.264;11.918;2022-07-01T09:46:23;6.05;;;5.65;;
40945;SDS011;55635;50.264;11.918;2022-07-01T09:49:05;6.15;;;5.65;;
40945;SDS011;55635;50.264;11.918;2022-07-01T09:51:47;6.43;;;5.93;;
40945;SDS011;55635;50.264;11.918;2022-07-01T09:54:30;6.70;;;6.10;;
40945;SDS011;55635;50.264;11.918;2022-07-01T09:57:11;7.50;;;6.80;;
40945;SDS011;55635;50.264;11.918;2022-07-01T09:59:52;7.63;;;6.93;;
40945;SDS011;55635;50.264;11.918;2022-07-01T10:02:33;8.02;;;7.32;;
40945;SDS011;55635;50.264;11.918;2022-07-01T10:05:15;7.82;;;7.13;;
40945;SDS011;55635;50.264;11.918;2022-07-01T10:08:14;8.15;;;7.50;;
40945;SDS011;55635;50.264;11.918;2022-07-01T10:14:41;8.75;;;7.95;;
40945;SDS011;55635;50.264;11.918;2022-07-01T10:17:27;8.50;;;7.68;;
40945;SDS011;55635;50.264;11.918;2022-07-01T10:20:16;9.48;;;8.57;;
40945;SDS011;55635;50.264;11.918;2022-07-01T10:23:03;8.68;;;7.88;;
40945;SDS011;55635;50.264;11.918;2022-07-01T10:25:47;8.45;;;7.65;;
40945;SDS011;55635;50.264;11.918;2022-07-01T10:28:31;8.40;;;7.70;;
40945;SDS011;55635;50.264;11.918;2022-07-01T10:31:35;10.18;;;8.32;;
40945;SDS011;55635;50.264;11.918;2022-07-01T10:34:18;8.85;;;8.05;;
40945;SDS011;55635;50.264;11.918;2022-07-01T10:37:04;9.18;;;8.35;;
40945;SDS011;55635;50.264;11.918;2022-07-01T10:39:55;13.38;;;10.52;;
40945;SDS011;55635;50.264;11.918;2022-07-01T10:42:56;11.30;;;9.80;;
40945;SDS011;55635;50.264;11.918;2022-07-01T10:45:42;12.77;;;11.13;;
40945;SDS011;55635;50.264;11.918;2022-07-01T10:48:29;14.10;;;11.70;;
40945;SDS011;55635;50.264;11.918;2022-07-01T10:51:12;12.95;;;10.48;;
40945;SDS011;55635;50.264;11.918;2022-07-01T10:53:57;12.60;;;11.00;;
40945;SDS011;55635;50.264;11.918;2022-07-01T10:56:39;11.38;;;9.70;;
40945;SDS011;55635;50.264;11.918;2022-07-01T10:59:21;10.27;;;9.23;;
40945;SDS011;55635;50.264;11.918;2022-07-01T11:02:09;9.43;;;8.52;;
40945;SDS011;55635;50.264;11.918;2022-07-01T11:05:00;9.52;;;8.05;;
40945;SDS011;55635;50.264;11.918;2022-07-01T11:07:43;10.13;;;8.50;;
40945;SDS011;55635;50.264;11.918;2022-07-01T11:10:26;8.52;;;7.53;;
40945;SDS011;55635;50.264;11.918;2022-07-01T11:13:08;8.60;;;7.70;;
40945;SDS011;55635;50.264;11.918;2022-07-01T11:15:54;7.72;;;6.25;;
40945;SDS011;55635;50.264;11.918;2022-07-01T11:18:36;6.13;;;5.55;;
40945;SDS011;55635;50.264;11.918;2022-07-01T11:21:20;6.20;;;5.63;;
40945;SDS011;55635;50.264;11.918;2022-07-01T11:24:08;6.70;;;5.50;;
40945;SDS011;55635;50.264;11.918;2022-07-01T11:26:50;6.30;;;5.13;;
40945;SDS011;55635;50.264;11.918;2022-07-01T11:29:34;4.72;;;4.28;;
40945;SDS011;55635;50.264;11.918;2022-07-01T11:32:23;4.90;;;4.15;;
40945;SDS011;55635;50.264;11.918;2022-07-01T11:35:05;5.00;;;4.60;;
40945;SDS011;55635;50.264;11.918;2022-07-01T11:38:18;4.80;;;4.32;;
40945;SDS011;55635;50.264;11.918;2022-07-01T11:41:22;5.05;;;4.55;;
40945;SDS011;55635;50.264;11.918;2022-07-01T11:44:08;4.97;;;4.47;;
40945;SDS011;55635;50.264;11.918;2022-07-01T11:46:49;4.90;;;4.50;;
40945;SDS011;55635;50.264;11.918;2022-07-01T11:49:30;4.82;;;4.43;;
40945;SDS011;55635;50.264;11.918;2022-07-01T11:52:12;4.68;;;4.38;;
40945;SDS011;55635;50.264;11.918;2022-07-01T11:54:55;5.35;;;4.95;;
40945;SDS011;55635;50.264;11.918;2022-07-01T11:57:39;5.35;;;4.72;;
40945;SDS011;55635;50.264;11.918;2022-07-01T12:00:21;6.60;;;5.38;;
40945;SDS011;55635;50.264;11.918;2022-07-01T12:03:02;5.60;;;5.10;;
40945;SDS011;55635;50.264;11.918;2022-07-01T12:05:47;6.57;;;5.97;;
40945;SDS011;55635;50.264;11.918;2022-07-01T12:08:30;5.93;;;5.30;;
40945;SDS011;55635;50.264;11.918;2022-07-01T12:11:12;6.07;;;5.47;;
40945;SDS011;55635;50.264;11.918;2022-07-01T12:13:54;5.88;;;5.38;;
40945;SDS011;55635;50.264;11.918;2022-07-01T12:16:40;5.43;;;4.93;;
40945;SDS011;55635;50.264;11.918;2022-07-01T12:19:43;7.20;;;4.95;;
40945;SDS011;55635;50.264;11.918;2022-07-01T12:22:28;6.10;;;5.45;;
40945;SDS011;55635;50.264;11.918;2022-07-01T12:25:10;6.80;;;5.82;;
40945;SDS011;55635;50.264;11.918;2022-07-01T12:27:55;5.50;;;4.88;;
40945;SDS011;55635;50.264;11.918;2022-07-01T12:30:38;5.50;;;5.00;;
40945;SDS011;55635;50.264;11.918;2022-07-01T12:33:19;5.60;;;5.10;;
40945;SDS011;55635;50.264;11.918;2022-07-01T12:36:03;6.90;;;5.38;;
40945;SDS011;55635;50.264;11.918;2022-07-01T12:38:58;5.53;;;5.03;;
40945;SDS011;55635;50.264;11.918;2022-07-01T12:41:48;6.57;;;5.65;;
40945;SDS011;55635;50.264;11.918;2022-07-01T12:44:33;5.97;;;5.32;;
40945;SDS011;55635;50.264;11.918;2022-07-01T12:47:24;5.80;;;5.30;;
40945;SDS011;55635;50.264;11.918;2022-07-01T12:50:28;5.72;;;4.75;;
40945;SDS011;55635;50.264;11.918;2022-07-01T12:53:17;5.70;;;5.20;;
40945;SDS011;55635;50.264;11.918;2022-07-01T12:56:00;7.40;;;4.63;;
40945;SDS011;55635;50.264;11.918;2022-07-01T12:58:42;5.55;;;5.05;;
40945;SDS011;55635;50.264;11.918;2022-07-01T13:01:23;4.95;;;4.45;;
40945;SDS011;55635;50.264;11.918;2022-07-01T13:04:04;5.45;;;4.95;;
40945;SDS011;55635;50.264;11.918;2022-07-01T13:06:45;5.68;;;4.60;;
40945;SDS011;55635;50.264;11.918;2022-07-01T13:09:26;4.95;;;4.45;;
40945;SDS011;55635;50.264;11.918;2022-07-01T13:12:07;4.75;;;4.35;;
40945;SDS011;55635;50.264;11.918;2022-07-01T13:14:48;4.90;;;4.50;;
40945;SDS011;55635;50.264;11.918;2022-07-01T13:17:29;5.40;;;4.95;;
40945;SDS011;55635;50.264;11.918;2022-07-01T13:20:11;5.30;;;4.80;;
40945;SDS011;55635;50.264;11.918;2022-07-01T13:22:54;5.07;;;4.68;;
40945;SDS011;55635;50.264;11.918;2022-07-01T13:25:35;5.50;;;5.00;;
40945;SDS011;55635;50.264;11.918;2022-07-01T13:28:16;5.05;;;4.63;;
40945;SDS011;55635;50.264;11.918;2022-07-01T13:30:57;7.03;;;5.20;;
40945;SDS011;55635;50.264;11.918;2022-07-01T13:33:38;6.75;;;5.45;;
40945;SDS011;55635;50.264;11.918;2022-07-01T13:36:20;6.47;;;5.88;;
40945;SDS011;55635;50.264;11.918;2022-07-01T13:39:01;5.60;;;4.60;;
40945;SDS011;55635;50.264;11.918;2022-07-01T13:41:42;5.68;;;5.07;;
40945;SDS011;55635;50.264;11.918;2022-07-01T13:44:23;4.85;;;4.35;;
40945;SDS011;55635;50.264;11.918;2022-07-01T13:47:04;4.57;;;4.18;;
40945;SDS011;55635;50.264;11.918;2022-07-01T13:49:49;5.43;;;3.40;;
40945;SDS011;55635;50.264;11.918;2022-07-01T13:52:30;5.80;;;3.70;;
40945;SDS011;55635;50.264;11.918;2022-07-01T13:55:11;3.60;;;3.30;;
40945;SDS011;55635;50.264;11.918;2022-07-01T13:57:53;5.75;;;3.40;;
40945;SDS011;55635;50.264;11.918;2022-07-01T14:00:34;3.17;;;2.67;;
40945;SDS011;55635;50.264;11.918;2022-07-01T14:03:15;2.60;;;2.40;;
40945;SDS011;55635;50.264;11.918;2022-07-01T14:05:56;4.40;;;3.00;;
40945;SDS011;55635;50.264;11.918;2022-07-01T14:08:37;2.97;;;2.75;;
40945;SDS011;55635;50.264;11.918;2022-07-01T14:11:18;2.97;;;2.78;;
40945;SDS011;55635;50.264;11.918;2022-07-01T14:14:00;4.30;;;3.35;;
40945;SDS011;55635;50.264;11.918;2022-07-01T14:16:41;6.55;;;3.33;;
40945;SDS011;55635;50.264;11.918;2022-07-01T14:19:22;3.83;;;2.80;;
40945;SDS011;55635;50.264;11.918;2022-07-01T14:22:03;6.00;;;3.17;;
40945;SDS011;55635;50.264;11.918;2022-07-01T14:24:44;3.38;;;3.08;;
40945;SDS011;55635;50.264;11.918;2022-07-01T14:27:25;3.25;;;2.70;;
40945;SDS011;55635;50.264;11.918;2022-07-01T14:30:07;3.17;;;2.88;;
40945;SDS011;55635;50.264;11.918;2022-07-01T14:32:49;3.28;;;2.72;;
40945;SDS011;55635;50.264;11.918;2022-07-01T14:35:30;3.28;;;2.97;;
40945;SDS011;55635;50.264;11.918;2022-07-01T14:38:11;3.00;;;2.80;;
40945;SDS011;55635;50.264;11.918;2022-07-01T14:40:54;3.67;;;2.80;;
40945;SDS011;55635;50.264;11.918;2022-07-01T14:43:36;3.05;;;2.75;;
40945;SDS011;55635;50.264;11.918;2022-07-01T14:46:18;4.30;;;3.00;;
40945;SDS011;55635;50.264;11.918;2022-07-01T14:48:59;4.25;;;3.50;;
40945;SDS011;55635;50.264;11.918;2022-07-01T14:51:40;3.58;;;3.28;;
40945;SDS011;55635;50.264;11.918;2022-07-01T14:54:21;3.53;;;3.28;;
40945;SDS011;55635;50.264;11.918;2022-07-01T14:57:03;3.75;;;3.20;;
40945;SDS011;55635;50.264;11.918;2022-07-01T14:59:45;3.10;;;2.88;;
40945;SDS011;55635;50.264;11.918;2022-07-01T15:02:27;3.63;;;2.70;;
40945;SDS011;55635;50.264;11.918;2022-07-01T15:05:09;5.65;;;3.20;;
40945;SDS011;55635;50.264;11.918;2022-07-01T15:07:50;4.25;;;3.22;;
40945;SDS011;55635;50.264;11.918;2022-07-01T15:10:31;3.85;;;3.42;;
40945;SDS011;55635;50.264;11.918;2022-07-01T15:13:12;3.58;;;3.28;;
40945;SDS011;55635;50.264;11.918;2022-07-01T15:15:53;6.40;;;3.40;;
40945;SDS011;55635;50.264;11.918;2022-07-01T15:18:34;4.70;;;3.67;;
40945;SDS011;55635;50.264;11.918;2022-07-01T15:21:15;4.75;;;4.13;;
40945;SDS011;55635;50.264;11.918;2022-07-01T15:23:56;3.83;;;3.42;;
40945;SDS011;55635;50.264;11.918;2022-07-01T15:26:37;3.17;;;2.67;;
40945;SDS011;55635;50.264;11.918;2022-07-01T15:29:18;3.33;;;2.95;;
40945;SDS011;55635;50.264;11.918;2022-07-01T15:32:00;3.03;;;2.83;;
40945;SDS011;55635;50.264;11.918;2022-07-01T15:34:41;3.17;;;2.88;;
40945;SDS011;55635;50.264;11.918;2022-07-01T15:37:22;2.05;;;1.85;;
40945;SDS011;55635;50.264;11.918;2022-07-01T15:40:03;2.72;;;2.15;;
40945;SDS011;55635;50.264;11.918;2022-07-01T15:42:45;2.40;;;2.20;;
40945;SDS011;55635;50.264;11.918;2022-07-01T15:45:26;2.38;;;2.03;;
40945;SDS011;55635;50.264;11.918;2022-07-01T15:48:07;2.38;;;2.25;;
40945;SDS011;55635;50.264;11.918;2022-07-01T15:50:49;3.65;;;2.33;;
40945;SDS011;55635;50.264;11.918;2022-07-01T15:53:30;2.58;;;2.38;;
40945;SDS011;55635;50.264;11.918;2022-07-01T15:56:13;2.13;;;1.90;;
40945;SDS011;55635;50.264;11.918;2022-07-01T15:58:54;1.38;;;1.20;;
40945;SDS011;55635;50.264;11.918;2022-07-01T16:01:38;1.45;;;1.20;;
40945;SDS011;55635;50.264;11.918;2022-07-01T16:04:21;1.05;;;0.90;;
40945;SDS011;55635;50.264;11.918;2022-07-01T16:07:07;1.35;;;0.90;;
40945;SDS011;55635;50.264;11.918;2022-07-01T16:09:58;1.30;;;1.20;;
40945;SDS011;55635;50.264;11.918;2022-07-01T16:12:47;1.05;;;1.02;;